Terminal Aerodrome Forecast
Issued by NWS

Current Version | Previous Version | Text Only | Print | Product List | Glossary Off
Versions: 1 2 3 4 5 6 7 8 9 10 11 12 13 14 15 16 17 18 19 20 21

000
FTUS41 KPBZ 302100 AAA
TAFHLG
TAF AMD
KHLG 302110Z 3021/3118 23008KT P6SM VCSH BKN050
      TEMPO 3021/3023 6SM -TSRA BKN035CB
     FM310100 22004KT P6SM SCT050
     FM310900 20004KT P6SM BKN035
     FM311500 24010KT P6SM BKN035=

USA.gov is the U.S. government's official web portal to all federal, state and local government web resources and services.